Terminal Aerodrome Forecast
Issued by NWS Blacksburg, VA

Current Version | Previous Version | Graphics & Text | Print | Product List | Glossary On
Versions: 1 2 3 4 5 6 7 8 9 10 11 12 13 14 15 16 17 18 19 20 21 22 23 24 25 26 27
000
FTUS41 KRNK 290521
TAFBLF
TAF
KBLF 290521Z 2906/3006 15003KT P6SM OVC100
      TEMPO 2908/2912 4SM BR
     FM291400 21005KT P6SM SCT025 SCT100
     FM291600 19006KT 6SM -SHRA VCTS BKN045CB
     FM292300 17005KT P6SM BKN080=

USA.gov is the U.S. government's official web portal to all federal, state and local government web resources and services.